createdAt,value
2022-11-20T00:03:17.281Z,17.37
2022-11-20T00:08:20.766Z,16.07
2022-11-20T00:13:24.234Z,16.80
2022-11-20T00:18:28.555Z,17.53
2022-11-20T00:23:32.774Z,17.57
2022-11-20T00:28:36.656Z,18.20
2022-11-20T00:33:40.105Z,18.27
2022-11-20T00:38:44.093Z,18.43
2022-11-20T00:43:47.289Z,15.70
2022-11-20T00:48:50.962Z,15.73
2022-11-20T00:53:57.213Z,17.93
2022-11-20T00:59:02.841Z,16.33
2022-11-20T01:04:06.693Z,17.47
2022-11-20T01:09:13.835Z,17.30
2022-11-20T01:14:20.249Z,13.57
2022-11-20T01:19:25.836Z,15.50
2022-11-20T01:24:29.504Z,17.90
2022-11-20T01:29:32.943Z,17.77
2022-11-20T01:34:36.352Z,18.03
2022-11-20T01:39:39.814Z,16.40
2022-11-20T01:45:01.252Z,16.03
2022-11-20T01:50:24.433Z,17.67
2022-11-20T01:55:34.131Z,18.37
2022-11-20T02:00:37.694Z,19.17
2022-11-20T02:06:19.824Z,19.20
2022-11-20T02:11:23.645Z,18.00
2022-11-20T02:16:37.483Z,19.57
2022-11-20T02:22:15.953Z,17.73
2022-11-20T02:27:20.294Z,17.90
2022-11-20T02:32:27.710Z,17.53
2022-11-20T02:37:35.775Z,17.37
2022-11-20T02:42:39.321Z,18.50
2022-11-20T02:47:42.773Z,18.00
2022-11-20T02:52:46.177Z,18.70
2022-11-20T02:57:49.735Z,18.70
2022-11-20T03:02:53.302Z,19.13
2022-11-20T03:07:56.746Z,17.63
2022-11-20T03:13:00.254Z,18.00
2022-11-20T03:18:03.614Z,17.57
2022-11-20T03:23:07.082Z,17.80
2022-11-20T03:28:10.753Z,19.13
2022-11-20T03:33:14.311Z,17.37
2022-11-20T03:38:17.808Z,16.20
2022-11-20T03:43:21.276Z,15.33
2022-11-20T03:48:25.034Z,16.77
2022-11-20T03:53:28.719Z,16.17
2022-11-20T03:58:32.186Z,14.47
2022-11-20T04:03:36.804Z,17.73
2022-11-20T04:08:40.507Z,16.67
2022-11-20T04:13:47.295Z,17.60
2022-11-20T04:18:55.665Z,16.17
2022-11-20T04:23:59.565Z,16.30
2022-11-20T04:29:05.679Z,17.37
2022-11-20T04:34:09.422Z,16.43
2022-11-20T04:39:17.643Z,19.37
2022-11-20T04:44:21.074Z,19.17
2022-11-20T04:49:24.908Z,20.27
2022-11-20T04:54:28.694Z,18.00
2022-11-20T04:59:32.068Z,18.43
2022-11-20T05:04:52.761Z,17.77
2022-11-20T05:09:56.275Z,20.07
2022-11-20T05:15:00.097Z,20.03
2022-11-20T05:20:03.380Z,19.03
2022-11-20T05:25:07.192Z,19.13
2022-11-20T05:30:11.473Z,17.73
2022-11-20T05:35:14.900Z,18.17
2022-11-20T05:40:18.359Z,20.67
2022-11-20T05:45:21.623Z,15.10
2022-11-20T05:50:24.730Z,19.50
2022-11-20T05:55:29.202Z,20.90
2022-11-20T06:00:33.238Z,18.30
2022-11-20T06:05:36.353Z,18.47
2022-11-20T06:10:39.324Z,19.93
2022-11-20T06:15:42.733Z,19.10
2022-11-20T06:20:47.258Z,16.77
2022-11-20T06:25:50.751Z,20.80
2022-11-20T06:30:54.652Z,20.90
2022-11-20T06:36:10.124Z,19.33
2022-11-20T06:41:16.865Z,23.00
2022-11-20T06:46:21.217Z,21.43
2022-11-20T06:51:24.622Z,19.77
2022-11-20T06:56:28.771Z,23.27
2022-11-20T07:01:32.132Z,24.67
2022-11-20T07:06:35.542Z,24.33
2022-11-20T07:11:39.141Z,15.33
2022-11-20T07:16:42.592Z,21.53
2022-11-20T07:21:45.653Z,21.87
2022-11-20T07:26:50.824Z,21.37
2022-11-20T07:31:57.095Z,21.30
2022-11-20T07:37:03.806Z,20.83
2022-11-20T07:42:09.600Z,21.40
2022-11-20T07:47:12.791Z,26.23
2022-11-20T07:52:16.345Z,20.57
2022-11-20T07:57:22.123Z,24.17
2022-11-20T08:02:27.724Z,20.97
2022-11-20T08:07:31.246Z,21.43
2022-11-20T08:12:53.917Z,15.03
2022-11-20T08:18:30.538Z,19.23
2022-11-20T08:23:35.332Z,17.70
2022-11-20T08:28:38.793Z,19.07
2022-11-20T08:33:41.940Z,21.87
2022-11-20T08:38:49.573Z,20.27
2022-11-20T08:43:58.423Z,21.03
2022-11-20T08:49:01.657Z,21.23
2022-11-20T08:54:09.116Z,21.70
2022-11-20T08:59:27.320Z,23.17
2022-11-20T09:05:20.483Z,21.90
2022-11-20T09:10:24.876Z,22.77
2022-11-20T09:15:29.114Z,23.80
2022-11-20T09:20:47.213Z,23.27
2022-11-20T09:26:13.564Z,24.17
2022-11-20T09:37:19.042Z,24.80
2022-11-20T09:43:02.779Z,20.97
2022-11-20T09:48:35.783Z,25.67
2022-11-20T09:53:58.796Z,25.30
2022-11-20T09:59:06.733Z,26.60
2022-11-20T10:04:12.622Z,22.73
2022-11-20T10:09:54.170Z,26.80
2022-11-20T10:15:12.578Z,23.07
2022-11-20T10:20:31.644Z,27.73
2022-11-20T10:25:46.568Z,24.50
2022-11-20T10:30:58.671Z,26.33
2022-11-20T10:36:23.472Z,26.57
2022-11-20T10:41:41.931Z,27.87
2022-11-20T10:46:47.082Z,30.10
2022-11-20T10:52:04.614Z,31.00
2022-11-20T10:57:22.485Z,29.10
2022-11-20T11:02:35.124Z,29.30
2022-11-20T11:07:41.727Z,28.00
2022-11-20T11:12:50.144Z,45.87
2022-11-20T11:17:53.842Z,48.53
2022-11-20T11:23:01.754Z,26.63
2022-11-20T11:28:06.605Z,27.37
2022-11-20T11:33:30.693Z,28.30
2022-11-20T11:38:44.831Z,28.23
2022-11-20T11:44:16.771Z,32.23
2022-11-20T11:49:22.427Z,30.97
2022-11-20T11:54:33.211Z,28.80
2022-11-20T11:59:56.244Z,28.30
2022-11-20T12:05:06.650Z,21.83
2022-11-20T12:10:44.643Z,27.33
2022-11-20T12:15:50.261Z,23.13
2022-11-20T12:21:24.785Z,25.17
2022-11-20T12:26:47.675Z,23.53
2022-11-20T12:32:07.392Z,23.57
2022-11-20T12:37:26.673Z,23.40
2022-11-20T12:43:03.857Z,24.33
2022-11-20T12:48:46.603Z,24.23
2022-11-20T12:54:29.735Z,23.07
2022-11-20T13:00:04.626Z,22.40
2022-11-20T13:05:22.141Z,19.97
2022-11-20T13:10:37.751Z,23.23
2022-11-20T13:15:53.974Z,21.77
2022-11-20T13:20:58.373Z,20.40
2022-11-20T13:26:27.803Z,20.47
2022-11-20T13:31:42.332Z,19.33
2022-11-20T13:36:55.597Z,18.17
2022-11-20T13:42:02.625Z,16.50
2022-11-20T13:47:26.638Z,19.10
2022-11-20T13:52:49.672Z,14.60
2022-11-20T13:58:25.651Z,12.43
2022-11-20T14:04:05.531Z,18.03
2022-11-20T14:09:02.184Z,17.90
2022-11-20T14:14:20.638Z,13.87
2022-11-20T14:19:33.313Z,18.17
2022-11-20T14:24:39.574Z,19.43
2022-11-20T14:29:46.002Z,17.50
2022-11-20T14:34:52.985Z,18.73
2022-11-20T14:40:00.557Z,18.40
2022-11-20T14:45:06.343Z,18.50
2022-11-20T14:50:27.975Z,19.33
2022-11-20T14:55:43.711Z,18.90
2022-11-20T15:01:09.573Z,18.07
2022-11-20T15:06:20.631Z,19.23
2022-11-20T15:11:32.025Z,19.83
2022-11-20T15:16:36.115Z,20.57
2022-11-20T15:21:40.258Z,19.77
2022-11-20T15:26:46.833Z,17.53
2022-11-20T15:31:55.698Z,17.53
2022-11-20T15:37:02.011Z,18.40
2022-11-20T15:42:09.022Z,18.60
2022-11-20T15:47:13.800Z,19.40
2022-11-20T15:52:18.509Z,20.60
2022-11-20T15:57:23.044Z,21.93
2022-11-20T16:02:28.462Z,19.03
2022-11-20T16:07:34.232Z,15.60
2022-11-20T16:12:57.683Z,18.00
2022-11-20T16:18:04.681Z,17.00
2022-11-20T16:23:09.666Z,18.60
2022-11-20T16:28:18.641Z,17.17
2022-11-20T16:33:24.034Z,18.53
2022-11-20T16:38:29.672Z,16.90
2022-11-20T16:43:35.508Z,20.33
2022-11-20T16:48:40.513Z,19.47
2022-11-20T16:53:44.982Z,19.53
2022-11-20T16:58:50.913Z,18.77
2022-11-20T17:04:04.834Z,18.50
2022-11-20T17:09:12.623Z,19.07
2022-11-20T17:14:17.252Z,20.27
2022-11-20T17:19:22.633Z,17.00
2022-11-20T17:24:31.613Z,19.17
2022-11-20T17:29:42.228Z,18.00
2022-11-20T17:34:47.699Z,17.40
2022-11-20T17:39:52.343Z,18.37
2022-11-20T17:45:00.103Z,18.73
2022-11-20T17:50:05.858Z,19.17
2022-11-20T17:55:11.814Z,18.20
2022-11-20T18:00:18.153Z,17.00
2022-11-20T18:05:22.123Z,19.17
2022-11-20T18:10:26.592Z,20.97
2022-11-20T18:15:36.754Z,20.13
2022-11-20T18:20:40.859Z,21.63
2022-11-20T18:25:48.802Z,18.77
2022-11-20T18:30:53.263Z,18.87
2022-11-20T18:35:56.972Z,18.83
2022-11-20T18:41:03.650Z,21.13
2022-11-20T18:46:11.613Z,25.40
2022-11-20T18:51:19.940Z,26.57
2022-11-20T18:56:24.440Z,18.20
2022-11-20T19:01:30.912Z,20.67
2022-11-20T19:06:40.310Z,20.97
2022-11-20T19:11:45.202Z,23.17
2022-11-20T19:16:50.542Z,22.50
2022-11-20T19:21:54.563Z,21.73
2022-11-20T19:27:02.246Z,25.20
2022-11-20T19:32:11.335Z,23.60
2022-11-20T19:37:18.280Z,24.50
2022-11-20T19:42:25.774Z,19.37
2022-11-20T19:48:06.112Z,18.00
2022-11-20T19:53:01.914Z,16.70
2022-11-20T19:58:07.749Z,16.13
2022-11-20T20:03:14.713Z,16.00
2022-11-20T20:08:21.064Z,18.07
2022-11-20T20:13:30.163Z,17.20
2022-11-20T20:18:34.721Z,20.10
2022-11-20T20:23:39.581Z,23.37
2022-11-20T20:28:44.932Z,19.87
2022-11-20T20:33:49.571Z,24.53
2022-11-20T20:38:55.797Z,19.63
2022-11-20T20:44:18.706Z,19.57
2022-11-20T20:49:24.427Z,20.83
2022-11-20T20:54:34.477Z,16.50
2022-11-20T20:59:50.703Z,17.73
2022-11-20T21:04:56.962Z,18.77
2022-11-20T21:10:01.222Z,20.23
2022-11-20T21:15:05.619Z,20.07
2022-11-20T21:20:30.206Z,18.37
2022-11-20T21:25:39.233Z,17.13
2022-11-20T21:30:43.534Z,18.13
2022-11-20T21:35:49.193Z,20.20
2022-11-20T21:40:53.563Z,19.60
2022-11-20T21:46:06.524Z,20.87
2022-11-20T21:51:21.797Z,20.53
2022-11-20T21:56:26.753Z,17.30
2022-11-20T22:01:32.098Z,19.63
2022-11-20T22:06:35.703Z,17.47
2022-11-20T22:11:39.334Z,18.30
2022-11-20T22:16:42.887Z,17.57
2022-11-20T22:21:46.933Z,18.03
2022-11-20T22:26:50.202Z,19.17
2022-11-20T22:31:54.070Z,22.43
2022-11-20T22:36:57.144Z,22.00
2022-11-20T22:42:00.553Z,22.80
2022-11-20T22:47:08.695Z,20.77
2022-11-20T22:52:14.242Z,21.73
2022-11-20T22:57:17.683Z,19.13
2022-11-20T23:02:20.733Z,21.47
2022-11-20T23:07:24.152Z,21.07
2022-11-20T23:12:27.623Z,20.57
2022-11-20T23:17:31.322Z,19.53
2022-11-20T23:22:34.464Z,19.50
2022-11-20T23:27:37.910Z,21.00
2022-11-20T23:32:41.332Z,20.13
2022-11-20T23:37:47.252Z,19.73
2022-11-20T23:43:08.841Z,18.77
2022-11-20T23:48:12.875Z,21.47
2022-11-20T23:53:17.073Z,19.83
2022-11-20T23:58:22.114Z,17.87
